Time;durP1;ratioP1;P1;durP2;ratioP2;P2;SDS_P1;SDS_P2;PMS_P1;PMS_P2;Temp;Humidity;BMP_temperature;BMP_pressure;BME280_temperature;BME280_humidity;BME280_pressure;Samples;Min_cycle;Max_cycle;Signal;HPM_P1;HPM_P2
2022/01/16 00:04:10;;;;;;;3.08;1.12;;;;;;;4.05;49.07;100627.91;1759696;81;21484;-69
2022/01/16 00:06:42;;;;;;;5.03;1.20;;;;;;;4.05;48.87;100639.81;1773478;80;22178;-69
2022/01/16 00:09:10;;;;;;;5.42;1.30;;;;;;;4.05;48.73;100648.22;1761387;80;21502;-69
2022/01/16 00:11:37;;;;;;;3.12;1.25;;;;;;;4.05;48.79;100635.01;1775595;80;21048;-69
2022/01/16 00:14:04;;;;;;;2.98;0.95;;;;;;;4.04;48.79;100632.88;1775029;80;21837;-69
2022/01/16 00:16:32;;;;;;;3.50;1.10;;;;;;;4.05;48.96;100628.41;1783885;80;20948;-70
2022/01/16 00:18:59;;;;;;;3.50;1.30;;;;;;;4.04;49.06;100636.04;1783831;80;21052;-70
2022/01/16 00:21:31;;;;;;;3.17;1.25;;;;;;;4.03;48.92;100648.45;1783825;80;21031;-69
2022/01/16 00:23:57;;;;;;;3.90;1.40;;;;;;;4.04;48.83;100641.33;1783385;80;21502;-69
2022/01/16 00:26:24;;;;;;;4.20;1.42;;;;;;;4.03;48.68;100637.88;1784109;80;21103;-71
2022/01/16 00:28:51;;;;;;;3.95;1.30;;;;;;;4.03;48.81;100651.09;1783207;80;20980;-69
2022/01/16 00:31:19;;;;;;;4.72;1.32;;;;;;;4.00;48.88;100658.92;1784294;80;21004;-70
2022/01/16 00:33:45;;;;;;;2.83;1.00;;;;;;;4.02;48.86;100646.03;1784121;80;21497;-68
2022/01/16 00:36:17;;;;;;;4.00;1.52;;;;;;;4.02;48.89;100648.67;1745239;80;21615;-69
2022/01/16 00:38:45;;;;;;;4.00;1.30;;;;;;;3.99;48.92;100634.05;1744982;82;21518;-68
2022/01/16 00:41:16;;;;;;;2.58;1.20;;;;;;;3.98;48.63;100616.55;1766173;80;21039;-69
2022/01/16 00:43:43;;;;;;;3.27;1.15;;;;;;;3.98;48.40;100625.31;1783680;80;20996;-69
2022/01/16 00:46:10;;;;;;;4.97;1.60;;;;;;;3.98;48.38;100642.48;1779807;80;21028;-70
2022/01/16 00:48:37;;;;;;;4.20;1.10;;;;;;;3.97;48.51;100646.65;1783610;80;21137;-70
2022/01/16 00:51:04;;;;;;;3.33;1.30;;;;;;;3.96;48.35;100641.88;1783443;80;21086;-70
2022/01/16 00:53:32;;;;;;;6.42;1.80;;;;;;;3.97;48.21;100654.06;1783871;80;21067;-69
2022/01/16 00:55:58;;;;;;;3.45;1.25;;;;;;;3.97;48.22;100654.58;1783676;80;21063;-69
2022/01/16 00:58:24;;;;;;;2.85;1.25;;;;;;;3.96;48.03;100666.98;1783647;80;21094;-69
2022/01/16 01:00:51;;;;;;;3.10;1.20;;;;;;;3.97;48.09;100638.20;1783937;80;20952;-69
2022/01/16 01:03:17;;;;;;;4.35;1.62;;;;;;;3.97;47.98;100622.34;1784132;80;21370;-68
2022/01/16 01:05:44;;;;;;;4.00;1.45;;;;;;;3.98;48.07;100612.09;1783702;80;21079;-70
2022/01/16 01:08:11;;;;;;;3.08;1.25;;;;;;;4.00;48.18;100647.55;1783931;80;21427;-69
2022/01/16 01:10:40;;;;;;;3.12;1.30;;;;;;;3.98;48.35;100646.94;1783842;80;21576;-69
2022/01/16 01:13:21;;;;;;;2.98;1.00;;;;;;;3.95;48.38;100649.52;1784367;80;21019;-69
2022/01/16 01:15:46;;;;;;;3.12;1.07;;;;;;;3.97;48.22;100654.58;1782074;80;21805;-69
2022/01/16 01:18:11;;;;;;;;;;;;;;;3.95;48.32;100672.49;1786919;80;20936;-69
2022/01/16 01:20:40;;;;;;;3.83;1.37;;;;;;;3.94;48.52;100666.38;1783986;80;20097;-69
2022/01/16 01:23:09;;;;;;;3.35;1.45;;;;;;;3.94;48.20;100650.52;1783923;80;21774;-69
2022/01/16 01:25:37;;;;;;;3.27;1.20;;;;;;;3.94;48.20;100659.77;1783863;80;20955;-69
2022/01/16 01:28:07;;;;;;;3.00;1.27;;;;;;;3.94;48.11;100688.03;1783824;80;21155;-69
2022/01/16 01:30:33;;;;;;;3.52;1.22;;;;;;;3.93;48.14;100684.58;1783743;80;21055;-69
2022/01/16 01:33:00;;;;;;;2.70;1.20;;;;;;;3.94;48.37;100694.12;1783955;80;20991;-68
2022/01/16 01:35:26;;;;;;;3.77;1.30;;;;;;;3.94;48.34;100690.67;1783942;80;20971;-68
2022/01/16 01:37:53;;;;;;;3.83;1.35;;;;;;;3.93;48.34;100706.23;1783861;80;20996;-68
2022/01/16 01:40:25;;;;;;;2.55;1.15;;;;;;;3.93;48.54;100747.20;1783847;80;21159;-70
2022/01/16 01:51:31;;;;;;;2.20;1.00;;;;;;;3.83;48.13;100597.03;1783959;80;21549;-70
2022/01/16 01:53:57;;;;;;;4.53;1.45;;;;;;;3.82;48.22;100575.59;1784183;80;21016;-70
2022/01/16 01:56:25;;;;;;;2.70;0.80;;;;;;;3.80;48.30;100580.27;1783673;80;21000;-69
2022/01/16 01:58:54;;;;;;;3.95;1.30;;;;;;;3.79;48.50;100584.46;1784177;80;21031;-69
2022/01/16 02:01:21;;;;;;;3.40;1.05;;;;;;;3.75;48.65;100611.30;1783318;80;21447;-69
2022/01/16 02:03:48;;;;;;;2.85;1.10;;;;;;;3.73;48.76;100639.75;1783831;80;21513;-69
2022/01/16 02:06:19;;;;;;;5.60;2.20;;;;;;;3.74;48.63;100644.00;1783786;80;21099;-70
2022/01/16 02:08:53;;;;;;;3.75;1.37;;;;;;;3.74;48.70;100642.68;1784145;80;21043;-69
2022/01/16 02:11:27;;;;;;;3.55;1.20;;;;;;;3.76;48.86;100647.25;1783809;80;21071;-69
2022/01/16 02:28:08;;;;;;;2.87;1.07;;;;;;;3.78;48.85;100666.04;1783956;80;20948;-68
2022/01/16 02:30:58;;;;;;;4.50;1.20;;;;;;;3.76;49.00;100650.41;1783731;80;21113;-69
2022/01/16 02:33:25;;;;;;;3.80;1.40;;;;;;;3.75;49.00;100638.20;1779874;80;22114;-68
2022/01/16 02:35:43;;;;;;;4.55;1.20;;;;;;;3.74;49.12;100654.56;1779579;80;21087;-69
2022/01/16 02:38:09;;;;;;;3.10;1.00;;;;;;;3.75;49.30;100669.91;1783896;80;21003;-68
2022/01/16 02:40:39;;;;;;;4.05;1.00;;;;;;;3.74;49.31;100676.22;1783822;80;20987;-69
2022/01/16 02:43:05;;;;;;;2.67;1.00;;;;;;;3.74;49.69;100684.14;1784156;80;20983;-69
2022/01/16 02:45:34;;;;;;;2.45;1.10;;;;;;;3.73;49.73;100687.81;1783902;80;21733;-69
2022/01/16 02:48:03;;;;;;;3.67;1.10;;;;;;;3.71;49.75;100705.17;1784253;80;21091;-69
2022/01/16 02:50:31;;;;;;;4.10;1.15;;;;;;;3.71;49.88;100709.66;1784244;80;21051;-69
2022/01/16 02:52:58;;;;;;;3.05;1.30;;;;;;;3.68;50.09;100698.98;1784173;80;21017;-69
2022/01/16 02:55:24;;;;;;;3.42;1.22;;;;;;;3.68;50.44;100695.53;1783909;80;21059;-69
2022/01/16 02:57:54;;;;;;;3.40;1.25;;;;;;;3.66;50.63;100689.16;1784039;80;21872;-69
2022/01/16 03:00:22;;;;;;;4.75;1.60;;;;;;;3.64;50.54;100699.11;1783257;80;20948;-69
2022/01/16 03:02:49;;;;;;;3.50;1.30;;;;;;;3.61;50.72;100698.71;1783949;80;21043;-69
2022/01/16 03:05:15;;;;;;;4.92;1.80;;;;;;;3.59;50.88;100706.05;1783871;80;21058;-69
2022/01/16 03:07:44;;;;;;;4.87;1.60;;;;;;;3.53;50.74;100712.45;1783884;80;21035;-69
2022/01/16 03:13:07;;;;;;;4.47;1.30;;;;;;;3.52;51.06;100716.59;1783940;80;21003;-70
2022/01/16 03:15:36;;;;;;;4.53;1.25;;;;;;;3.50;51.23;100716.82;1783824;80;21181;-69
2022/01/16 03:23:21;;;;;;;4.17;1.32;;;;;;;3.53;51.15;100737.53;1784151;80;21538;-69
2022/01/16 03:25:49;;;;;;;4.40;1.52;;;;;;;3.53;50.88;100726.97;1783797;80;21462;-68
2022/01/16 03:28:16;;;;;;;4.97;2.00;;;;;;;3.55;50.82;100724.11;1784060;80;21082;-69
2022/01/16 03:30:43;;;;;;;4.97;1.95;;;;;;;3.55;50.45;100742.59;1784023;80;21027;-68
2022/01/16 03:33:09;;;;;;;4.50;1.50;;;;;;;3.53;49.88;100730.94;1783804;80;21027;-69
2022/01/16 03:35:36;;;;;;;3.52;1.20;;;;;;;3.55;49.58;100733.87;1784035;80;22128;-69
2022/01/16 03:38:03;;;;;;;2.85;1.10;;;;;;;3.57;49.49;100743.22;1783782;80;20987;-69
2022/01/16 03:40:31;;;;;;;3.45;1.10;;;;;;;3.59;49.53;100737.74;1783911;80;21644;-69
2022/01/16 03:43:04;;;;;;;2.75;1.10;;;;;;;3.58;49.38;100758.55;1759522;81;21580;-70
2022/01/16 03:45:27;;;;;;;4.12;1.20;;;;;;;3.59;49.28;100754.40;1757392;81;20978;-69
2022/01/16 03:47:55;;;;;;;3.50;1.15;;;;;;;3.60;49.38;100752.56;1773717;80;22097;-70
2022/01/16 03:50:21;;;;;;;4.90;1.65;;;;;;;3.61;49.50;100751.53;1760198;81;21303;-69
2022/01/16 03:52:48;;;;;;;3.47;1.30;;;;;;;3.60;49.58;100750.73;1744652;82;20963;-69
2022/01/16 03:55:15;;;;;;;3.30;1.27;;;;;;;3.61;49.74;100744.42;1731029;82;21033;-69
2022/01/16 03:57:41;;;;;;;3.47;1.30;;;;;;;3.62;49.76;100755.80;1731005;83;21187;-69
2022/01/16 04:00:09;;;;;;;3.17;1.20;;;;;;;3.62;49.99;100757.11;1744784;82;21110;-70
2022/01/16 04:02:36;;;;;;;3.62;1.40;;;;;;;3.61;50.11;100762.10;1730906;83;20993;-69
2022/01/16 04:05:03;;;;;;;3.70;1.30;;;;;;;3.60;50.26;100753.88;1731058;83;21054;-70
2022/01/16 04:07:35;;;;;;;4.15;1.37;;;;;;;3.58;50.45;100751.95;1730843;83;20938;-69
2022/01/16 04:09:59;;;;;;;3.87;1.07;;;;;;;3.59;50.65;100760.19;1730804;83;21528;-70
2022/01/16 04:12:25;;;;;;;3.52;1.25;;;;;;;3.58;50.86;100746.66;1744706;82;21475;-70
2022/01/16 04:17:22;;;;;;;3.65;1.20;;;;;;;3.53;51.41;100736.22;1730842;83;21518;-70
2022/01/16 04:19:49;;;;;;;4.30;1.30;;;;;;;3.51;51.37;100738.23;1745013;82;21055;-69
2022/01/16 04:22:16;;;;;;;4.75;1.50;;;;;;;3.51;51.71;100736.92;1730770;83;21033;-69
2022/01/16 04:24:42;;;;;;;4.10;1.47;;;;;;;3.50;51.88;100741.09;1731424;82;21511;-68
2022/01/16 04:27:11;;;;;;;4.47;1.50;;;;;;;3.48;52.08;100735.20;1730919;83;21045;-69
2022/01/16 04:29:39;;;;;;;4.45;1.60;;;;;;;3.49;52.33;100750.85;1744897;82;21012;-69
2022/01/16 04:32:07;;;;;;;4.53;1.60;;;;;;;3.50;52.58;100746.38;1730920;83;21045;-69
2022/01/16 04:34:34;;;;;;;3.98;1.30;;;;;;;3.47;52.78;100744.95;1731128;83;21026;-69
2022/01/16 04:37:00;;;;;;;6.53;1.60;;;;;;;3.47;52.89;100755.52;1730722;83;21103;-69
2022/01/16 04:39:37;;;;;;;4.33;1.32;;;;;;;3.46;52.99;100745.17;1735188;81;21081;-70
2022/01/16 04:44:40;;;;;;;5.72;1.55;;;;;;;3.45;53.18;100761.50;1761682;81;21496;-68
2022/01/16 04:47:06;;;;;;;6.00;1.70;;;;;;;3.46;53.22;100759.70;1761114;81;21541;-69
2022/01/16 04:49:36;;;;;;;4.62;1.57;;;;;;;3.44;53.10;100766.48;1761217;81;21543;-69
2022/01/16 04:52:03;;;;;;;5.10;1.50;;;;;;;3.43;53.02;100757.47;1760939;81;21484;-70
2022/01/16 04:54:31;;;;;;;6.42;1.70;;;;;;;3.43;53.03;100762.75;1761114;81;21053;-69
2022/01/16 04:56:57;;;;;;;3.30;1.47;;;;;;;3.42;52.82;100761.10;1761147;81;21026;-69
2022/01/16 04:59:24;;;;;;;3.25;1.50;;;;;;;3.44;52.79;100774.92;1761740;81;20974;-69
2022/01/16 05:01:51;;;;;;;5.17;1.75;;;;;;;3.42;52.65;100767.22;1761123;81;21146;-68
2022/01/16 05:04:18;;;;;;;3.67;1.50;;;;;;;3.41;52.33;100772.17;1761488;81;21041;-68
2022/01/16 05:06:44;;;;;;;3.60;1.50;;;;;;;3.42;52.30;100785.70;1761053;81;21002;-69
2022/01/16 05:09:10;;;;;;;4.12;1.40;;;;;;;3.44;52.26;100782.33;1761675;81;20997;-69
2022/01/16 05:11:38;;;;;;;4.40;1.55;;;;;;;3.44;52.39;100781.01;1744430;82;21059;-69
2022/01/16 05:19:03;;;;;;;4.78;1.70;;;;;;;3.44;52.63;100788.93;1761482;81;20998;-69
2022/01/16 05:21:29;;;;;;;3.30;1.35;;;;;;;3.46;52.75;100795.34;1761111;81;20979;-69
2022/01/16 05:23:55;;;;;;;3.90;1.82;;;;;;;3.44;52.90;100798.69;1760738;81;20994;-69
2022/01/16 05:26:27;;;;;;;3.58;1.50;;;;;;;3.41;52.93;100797.27;1761172;81;21496;-69
2022/01/16 05:28:51;;;;;;;3.95;1.50;;;;;;;3.36;52.85;100787.02;1760553;81;20923;-70
2022/01/16 05:31:17;;;;;;;4.20;1.50;;;;;;;3.33;52.84;100800.12;1775349;80;21000;-69
2022/01/16 05:33:44;;;;;;;5.42;1.80;;;;;;;3.27;52.80;100796.45;1775248;80;21119;-70
2022/01/16 05:36:10;;;;;;;5.60;2.02;;;;;;;3.24;52.83;100800.01;1769306;80;21090;-70
2022/01/16 05:38:36;;;;;;;3.02;1.12;;;;;;;3.22;53.02;100809.95;1769800;80;21780;-69
2022/01/16 05:41:03;;;;;;;5.20;1.70;;;;;;;3.20;52.90;100802.75;1757129;81;20991;-69
2022/01/16 05:43:30;;;;;;;5.53;1.50;;;;;;;3.19;52.76;100809.02;1762516;81;20994;-69
2022/01/16 05:45:56;;;;;;;4.47;1.55;;;;;;;3.17;52.70;100811.08;1762304;80;21078;-69
2022/01/16 05:48:22;;;;;;;4.78;1.65;;;;;;;3.13;52.48;100818.58;1762708;80;21094;-70
2022/01/16 05:50:49;;;;;;;3.70;1.65;;;;;;;3.15;52.37;100808.62;1774100;80;21592;-68
2022/01/16 05:53:16;;;;;;;4.87;1.50;;;;;;;3.19;52.47;100802.43;1784416;80;21141;-69
2022/01/16 05:55:42;;;;;;;4.37;1.47;;;;;;;3.21;52.31;100804.37;1784324;80;21122;-69
2022/01/16 05:58:09;;;;;;;4.47;1.60;;;;;;;3.20;52.07;100813.31;1784126;80;21036;-69
2022/01/16 06:00:37;;;;;;;4.42;1.70;;;;;;;3.18;52.04;100820.61;1784520;80;20995;-69
2022/01/16 06:03:05;;;;;;;4.83;1.47;;;;;;;3.17;52.09;100817.67;1784428;80;21137;-69
2022/01/16 06:05:31;;;;;;;4.33;1.57;;;;;;;3.18;52.28;100819.29;1764637;80;20966;-69
2022/01/16 06:08:01;;;;;;;5.25;1.72;;;;;;;3.19;51.88;100822.22;1779517;80;21055;-69
2022/01/16 06:10:27;;;;;;;4.08;1.37;;;;;;;3.18;51.41;100822.73;1784354;80;21020;-69
2022/01/16 06:12:54;;;;;;;3.90;1.57;;;;;;;3.21;51.49;100826.81;1783860;80;21003;-68
2022/01/16 06:15:21;;;;;;;3.15;1.32;;;;;;;3.20;51.30;100827.31;1784513;80;21157;-69
2022/01/16 06:17:48;;;;;;;4.12;1.60;;;;;;;3.22;51.42;100829.74;1784378;80;20936;-69
2022/01/16 06:20:15;;;;;;;3.50;1.35;;;;;;;3.22;51.12;100831.06;1784552;80;21074;-70
2022/01/16 06:22:43;;;;;;;4.20;1.45;;;;;;;3.20;50.74;100838.39;1784435;80;21534;-70
2022/01/16 06:25:10;;;;;;;4.15;1.30;;;;;;;3.20;50.52;100851.59;1784450;80;21067;-69
2022/01/16 06:27:37;;;;;;;4.65;1.42;;;;;;;3.22;50.31;100847.70;1784592;80;21028;-69
2022/01/16 06:30:05;;;;;;;3.35;1.32;;;;;;;3.25;50.27;100845.18;1784503;80;21019;-69
2022/01/16 06:32:31;;;;;;;3.95;1.30;;;;;;;3.29;50.18;100847.72;1784463;80;20944;-69
2022/01/16 06:34:58;;;;;;;4.25;1.37;;;;;;;3.29;49.82;100858.27;1784669;80;21019;-69
2022/01/16 06:37:24;;;;;;;6.97;1.87;;;;;;;3.31;49.78;100853.62;1778215;80;21015;-68
2022/01/16 06:39:51;;;;;;;3.75;1.67;;;;;;;3.33;49.57;100855.56;1784749;80;21147;-71
2022/01/16 06:42:17;;;;;;;3.08;1.20;;;;;;;3.32;49.50;100845.99;1784132;80;20999;-70
2022/01/16 06:44:43;;;;;;;3.90;1.70;;;;;;;3.34;49.33;100842.66;1784920;80;20971;-69
2022/01/16 06:47:10;;;;;;;3.47;1.00;;;;;;;3.32;49.48;100845.19;1784417;80;21043;-69
2022/01/16 06:49:36;;;;;;;4.37;1.57;;;;;;;3.33;49.75;100848.16;1784959;80;21043;-69
2022/01/16 06:52:03;;;;;;;4.58;1.60;;;;;;;3.32;49.77;100840.71;1784440;80;21543;-69
2022/01/16 06:54:30;;;;;;;4.00;1.70;;;;;;;3.33;50.03;100852.11;1784415;80;21059;-69
2022/01/16 06:56:57;;;;;;;5.12;1.70;;;;;;;3.33;49.94;100848.96;1784536;80;21007;-70
2022/01/16 06:59:23;;;;;;;3.92;1.60;;;;;;;3.35;50.01;100855.34;1784447;80;21086;-68
2022/01/16 07:01:50;;;;;;;4.78;1.70;;;;;;;3.33;49.65;100852.92;1784552;80;20959;-69
2022/01/16 07:04:17;;;;;;;6.30;1.70;;;;;;;3.34;49.79;100852.41;1784618;80;21522;-70
2022/01/16 07:06:43;;;;;;;4.47;1.60;;;;;;;3.33;49.76;100856.88;1784729;80;20972;-69
2022/01/16 07:09:09;;;;;;;5.35;1.98;;;;;;;3.30;49.65;100869.16;1784718;80;21047;-69
2022/01/16 07:11:36;;;;;;;4.62;1.82;;;;;;;3.29;49.88;100870.16;1784418;80;21028;-69
2022/01/16 07:14:03;;;;;;;4.67;1.70;;;;;;;3.27;49.70;100871.69;1784649;80;21043;-70
2022/01/16 07:16:29;;;;;;;4.97;1.60;;;;;;;3.28;49.66;100872.50;1784599;80;21778;-69
2022/01/16 07:18:56;;;;;;;6.20;2.08;;;;;;;3.30;49.80;100874.44;1784379;80;20980;-69
2022/01/16 07:21:22;;;;;;;6.03;2.30;;;;;;;3.29;49.77;100870.16;1784454;80;21015;-68
2022/01/16 07:23:49;;;;;;;4.90;1.90;;;;;;;3.31;50.06;100879.21;1784642;80;21144;-69
2022/01/16 07:26:17;;;;;;;5.30;2.30;;;;;;;3.32;49.98;100879.51;1784600;80;21019;-70
2022/01/16 07:28:44;;;;;;;7.53;2.20;;;;;;;3.33;49.81;100876.68;1784670;80;21143;-70
2022/01/16 07:31:11;;;;;;;4.53;1.85;;;;;;;3.34;49.83;100892.02;1784501;80;21706;-69
2022/01/16 07:33:38;;;;;;;6.00;2.15;;;;;;;3.31;49.42;100883.98;1784568;80;21051;-70
2022/01/16 07:36:05;;;;;;;5.35;2.00;;;;;;;3.32;49.72;100885.59;1777501;80;21636;-70
2022/01/16 07:38:33;;;;;;;5.42;2.10;;;;;;;3.33;49.57;100887.24;1781077;80;20991;-69
2022/01/16 07:40:59;;;;;;;5.80;1.72;;;;;;;3.34;49.04;100892.02;1784645;80;21107;-69
2022/01/16 07:43:26;;;;;;;4.47;1.62;;;;;;;3.33;48.27;100893.84;1784166;80;21035;-70
2022/01/16 07:45:52;;;;;;;3.92;1.80;;;;;;;3.36;48.05;100901.87;1784692;80;21055;-69
2022/01/16 07:48:18;;;;;;;4.50;1.57;;;;;;;3.38;48.03;100894.55;1784641;80;21062;-69
2022/01/16 07:50:45;;;;;;;3.92;1.50;;;;;;;3.40;47.28;100900.45;1784578;80;21082;-69
2022/01/16 07:53:12;;;;;;;3.85;1.70;;;;;;;3.41;47.17;100891.51;1783457;80;21116;-70
2022/01/16 07:55:38;;;;;;;4.70;1.70;;;;;;;3.44;47.43;100889.79;1784450;80;21549;-70
2022/01/16 07:58:05;;;;;;;3.77;1.50;;;;;;;3.47;47.44;100880.14;1784701;80;21614;-70
2022/01/16 08:00:33;;;;;;;4.28;1.50;;;;;;;3.49;46.85;100890.82;1784246;80;21067;-69
2022/01/16 08:02:59;;;;;;;2.55;1.20;;;;;;;3.49;45.98;100880.77;1784406;80;20987;-69
2022/01/16 08:05:26;;;;;;;3.50;1.42;;;;;;;3.49;45.81;100884.22;1784696;80;21122;-69
2022/01/16 08:07:52;;;;;;;3.62;1.52;;;;;;;3.51;45.65;100891.92;1783869;80;21014;-69
2022/01/16 08:10:19;;;;;;;4.92;1.57;;;;;;;3.53;45.61;100904.43;1784623;80;21000;-70
2022/01/16 08:12:46;;;;;;;5.45;2.10;;;;;;;3.53;45.72;100907.87;1784467;80;21047;-69
2022/01/16 08:15:12;;;;;;;4.50;1.72;;;;;;;3.55;45.82;100906.34;1785036;80;21011;-69
2022/01/16 08:17:40;;;;;;;3.40;1.40;;;;;;;3.56;45.59;100896.62;1784164;80;21159;-70
2022/01/16 08:20:08;;;;;;;4.47;1.70;;;;;;;3.57;45.63;100909.61;1784794;80;20945;-70
2022/01/16 08:22:36;;;;;;;3.55;1.50;;;;;;;3.55;45.61;100902.89;1784491;80;21090;-69
2022/01/16 08:25:04;;;;;;;3.65;1.62;;;;;;;3.53;45.73;100897.31;1784830;80;21023;-70
2022/01/16 08:27:31;;;;;;;4.30;1.47;;;;;;;3.57;45.93;100908.80;1784308;80;21003;-70
2022/01/16 08:29:57;;;;;;;5.78;1.80;;;;;;;3.58;45.98;100899.34;1784575;80;21323;-69
2022/01/16 08:32:23;;;;;;;5.12;1.80;;;;;;;3.60;46.24;100911.84;1784478;80;20965;-70
2022/01/16 08:34:50;;;;;;;4.35;1.60;;;;;;;3.63;46.21;100900.08;1783492;80;21007;-69
2022/01/16 08:37:16;;;;;;;6.15;2.25;;;;;;;3.65;46.55;100901.50;1782920;80;21086;-69
2022/01/16 08:39:43;;;;;;;4.75;1.82;;;;;;;3.69;46.51;100897.95;1782922;80;21479;-69
2022/01/16 08:42:09;;;;;;;4.92;2.00;;;;;;;3.68;46.45;100913.47;1782781;80;21493;-70
2022/01/16 08:44:38;;;;;;;5.33;1.92;;;;;;;3.69;46.66;100920.40;1782719;80;20956;-70
2022/01/16 08:47:06;;;;;;;5.72;2.15;;;;;;;3.70;46.81;100910.12;1782792;80;21456;-68
2022/01/16 08:49:36;;;;;;;6.35;2.45;;;;;;;3.71;46.88;100912.55;1782794;80;20972;-70
2022/01/16 08:52:04;;;;;;;5.17;2.20;;;;;;;3.72;46.91;100897.54;1757685;80;21431;-69
2022/01/16 08:54:30;;;;;;;5.10;1.98;;;;;;;3.71;46.98;100913.06;1780850;80;21139;-69
2022/01/16 08:56:57;;;;;;;4.85;1.90;;;;;;;3.70;47.29;100892.95;1784252;80;21043;-69
2022/01/16 08:59:23;;;;;;;4.10;1.60;;;;;;;3.71;47.22;100894.58;1784747;80;21025;-69
2022/01/16 09:01:49;;;;;;;6.50;2.00;;;;;;;3.72;47.10;100898.34;1784314;80;21011;-69
2022/01/16 09:04:16;;;;;;;4.87;1.90;;;;;;;3.74;47.12;100890.20;1784814;80;21169;-70
2022/01/16 09:06:42;;;;;;;4.10;1.70;;;;;;;3.73;46.98;100878.02;1784580;80;21036;-69
2022/01/16 09:09:09;;;;;;;4.25;1.52;;;;;;;3.70;46.29;100876.59;1784317;80;21047;-68
2022/01/16 09:11:37;;;;;;;6.62;1.92;;;;;;;3.70;46.30;100876.59;1784478;80;21008;-69
2022/01/16 09:14:04;;;;;;;4.20;1.85;;;;;;;3.65;46.46;100884.33;1784270;80;21015;-69
2022/01/16 09:16:31;;;;;;;4.25;1.87;;;;;;;3.57;46.96;100877.11;1784438;80;21463;-70
2022/01/16 09:18:57;;;;;;;3.85;1.90;;;;;;;3.56;47.25;100873.66;1784468;80;22119;-70
2022/01/16 09:21:24;;;;;;;4.05;1.82;;;;;;;3.60;47.26;100866.95;1784309;80;21434;-69
2022/01/16 09:23:50;;;;;;;5.28;2.08;;;;;;;3.62;46.79;100865.41;1784456;80;21454;-69
2022/01/16 09:26:18;;;;;;;6.90;2.10;;;;;;;3.62;46.81;100862.77;1784669;80;20960;-69
2022/01/16 09:28:44;;;;;;;5.28;1.87;;;;;;;3.63;46.83;100864.41;1784404;80;21003;-69
2022/01/16 09:31:11;;;;;;;6.12;1.77;;;;;;;3.68;47.08;100865.41;1784813;80;22153;-69
2022/01/16 09:33:37;;;;;;;4.35;1.90;;;;;;;3.72;47.20;100850.80;1774541;80;21069;-69
2022/01/16 09:36:05;;;;;;;4.28;1.52;;;;;;;3.74;46.99;100843.45;1768711;81;20983;-68
2022/01/16 09:38:32;;;;;;;5.03;1.75;;;;;;;3.71;46.69;100848.34;1757381;81;21120;-68
2022/01/16 09:40:58;;;;;;;3.77;1.47;;;;;;;3.66;46.47;100851.61;1790461;80;21085;-69
2022/01/16 09:43:25;;;;;;;3.40;1.20;;;;;;;3.64;46.50;100850.18;1762722;81;21071;-70
2022/01/16 09:45:54;;;;;;;6.42;1.40;;;;;;;3.66;46.52;100836.27;1762191;81;20956;-69
2022/01/16 09:48:21;;;;;;;3.20;1.30;;;;;;;3.65;46.18;100830.18;1762864;81;20980;-69
2022/01/16 09:50:47;;;;;;;3.40;1.37;;;;;;;3.62;45.74;100837.67;1768522;80;21000;-70
2022/01/16 09:53:14;;;;;;;4.67;1.65;;;;;;;3.62;45.63;100854.84;1780679;80;21019;-70
2022/01/16 09:55:41;;;;;;;2.77;1.15;;;;;;;3.62;45.54;100844.28;1784258;80;21572;-69
2022/01/16 09:58:07;;;;;;;3.55;1.30;;;;;;;3.62;45.50;100842.95;1784496;80;20995;-70
2022/01/16 10:00:35;;;;;;;4.83;1.62;;;;;;;3.62;45.41;100841.64;1784379;80;20959;-70
2022/01/16 10:03:02;;;;;;;4.62;1.52;;;;;;;3.65;45.36;100846.51;1784358;80;21002;-68
2022/01/16 10:05:38;;;;;;;4.45;1.70;;;;;;;3.68;45.49;100846.11;1784478;80;21058;-69
2022/01/16 10:08:09;;;;;;;4.33;1.50;;;;;;;3.68;45.38;100839.50;1781364;80;21175;-68
2022/01/16 10:10:39;;;;;;;5.35;1.80;;;;;;;3.70;45.53;100842.77;1784286;80;21546;-68
2022/01/16 10:13:23;;;;;;;3.42;1.50;;;;;;;3.72;45.48;100832.30;1784432;80;21082;-69
2022/01/16 10:15:55;;;;;;;4.65;1.72;;;;;;;3.75;45.54;100827.94;1760168;80;21031;-69
2022/01/16 10:18:39;;;;;;;5.53;1.92;;;;;;;3.77;45.68;100831.67;1784336;80;20995;-68
2022/01/16 10:21:08;;;;;;;;;;;;;;;3.73;46.00;100834.43;1787118;80;21086;-69
2022/01/16 10:23:40;;;;;;;4.10;1.40;;;;;;;3.72;46.37;100828.85;1784406;80;20168;-68
2022/01/16 10:26:22;;;;;;;4.12;1.60;;;;;;;3.68;46.67;100832.38;1783690;80;21031;-70
2022/01/16 10:28:49;;;;;;;4.15;1.77;;;;;;;3.63;46.92;100829.56;1781360;80;20964;-69
2022/01/16 10:31:27;;;;;;;4.62;1.77;;;;;;;3.59;47.19;100828.86;1784229;80;21039;-68
2022/01/16 10:33:50;;;;;;;4.60;1.65;;;;;;;3.55;47.52;100834.23;1783139;80;21124;-70
2022/01/16 10:36:38;;;;;;;4.40;1.85;;;;;;;3.48;47.53;100827.63;1783871;80;21082;-69
2022/01/16 10:39:10;;;;;;;3.72;1.60;;;;;;;3.44;47.34;100831.19;1784460;80;20957;-69
2022/01/16 10:41:38;;;;;;;5.00;1.65;;;;;;;3.39;47.67;100829.67;1783629;80;21035;-69
2022/01/16 10:44:28;;;;;;;4.45;1.40;;;;;;;3.40;47.59;100831.29;1784427;80;21003;-68
2022/01/16 10:46:54;;;;;;;4.33;1.50;;;;;;;3.41;47.21;100826.81;1781458;80;21553;-69
2022/01/16 10:49:21;;;;;;;4.28;1.42;;;;;;;3.40;46.93;100827.84;1783188;80;21003;-68
2022/01/16 10:52:10;;;;;;;4.72;1.40;;;;;;;3.39;47.06;100827.03;1784340;80;21047;-69
2022/01/16 10:54:39;;;;;;;6.12;1.80;;;;;;;3.42;47.17;100821.34;1784383;80;21014;-69
2022/01/16 10:57:26;;;;;;;4.72;1.60;;;;;;;3.44;47.21;100818.49;1784316;80;21063;-69
2022/01/16 11:00:11;;;;;;;2.95;1.32;;;;;;;3.51;47.19;100833.31;1784704;80;21933;-69
2022/01/16 11:02:42;;;;;;;3.95;1.70;;;;;;;3.50;47.00;100815.85;1784083;80;21008;-69
2022/01/16 11:05:16;;;;;;;3.60;1.67;;;;;;;3.49;46.95;100825.31;1785196;80;21003;-69
2022/01/16 11:07:43;;;;;;;4.20;1.45;;;;;;;3.45;46.98;100819.59;1784364;80;21130;-69
2022/01/16 11:10:33;;;;;;;4.55;1.85;;;;;;;3.42;47.28;100827.95;1784563;80;20980;-69
2022/01/16 11:13:07;;;;;;;4.35;1.62;;;;;;;3.44;47.19;100823.26;1784591;80;21375;-69
2022/01/16 11:15:35;;;;;;;4.10;1.67;;;;;;;3.45;47.14;100824.88;1784683;80;21003;-70
2022/01/16 11:18:01;;;;;;;3.40;1.30;;;;;;;3.41;47.19;100816.25;1784420;80;21020;-70
2022/01/16 11:20:34;;;;;;;3.35;1.35;;;;;;;3.38;47.17;100822.75;1784690;80;21474;-69
2022/01/16 11:22:59;;;;;;;4.20;1.70;;;;;;;3.34;47.22;100828.64;1783238;80;21181;-69
2022/01/16 11:25:37;;;;;;;3.50;1.30;;;;;;;3.30;47.52;100816.36;1784727;80;22149;-69
2022/01/16 11:28:14;;;;;;;3.62;1.40;;;;;;;3.32;47.22;100819.59;1779042;80;21098;-70
2022/01/16 11:30:50;;;;;;;5.53;1.72;;;;;;;3.33;47.27;100825.71;1752707;81;21526;-69
2022/01/16 11:33:17;;;;;;;5.10;1.50;;;;;;;3.35;46.94;100810.46;1791069;80;21023;-69
2022/01/16 11:35:50;;;;;;;6.25;1.80;;;;;;;3.32;47.21;100819.59;1773995;80;21048;-69
2022/01/16 11:38:23;;;;;;;5.28;1.95;;;;;;;3.29;47.53;100813.39;1735546;81;21624;-70
2022/01/16 11:40:50;;;;;;;;;;;;;;;3.30;47.84;100815.05;1778367;80;21099;-69
2022/01/16 11:43:33;;;;;;;5.62;1.80;;;;;;;3.31;47.33;100817.98;1783973;80;20183;-70
2022/01/16 11:46:10;;;;;;;4.75;1.55;;;;;;;3.24;47.09;100815.33;1783720;80;21059;-69
2022/01/16 11:48:46;;;;;;;3.50;1.60;;;;;;;3.20;47.43;100811.48;1784033;80;21085;-69
2022/01/16 11:51:40;;;;;;;4.22;1.45;;;;;;;3.16;47.35;100823.95;1783840;80;21137;-68
2022/01/16 11:54:30;;;;;;;4.05;1.50;;;;;;;3.08;46.98;100814.41;1783846;80;21019;-70
2022/01/16 11:57:03;;;;;;;3.98;1.22;;;;;;;3.02;47.10;100822.61;1782920;80;20992;-69
2022/01/16 11:59:37;;;;;;;4.22;1.57;;;;;;;2.98;47.23;100803.43;1783998;80;20992;-70
2022/01/16 12:02:16;;;;;;;3.25;1.27;;;;;;;2.99;47.16;100808.49;1783613;80;21052;-70
2022/01/16 12:04:47;;;;;;;4.25;1.60;;;;;;;3.01;47.55;100797.24;1782788;80;21144;-69
2022/01/16 12:07:26;;;;;;;5.25;1.75;;;;;;;3.01;46.63;100796.44;1654663;80;9999978;-69
2022/01/16 12:09:57;;;;;;;3.05;1.30;;;;;;;2.98;46.69;100811.34;1786571;78;21281;-70
2022/01/16 12:12:28;;;;;;;4.35;1.50;;;;;;;2.92;46.46;100802.40;1787460;79;21073;-70
2022/01/16 12:15:16;;;;;;;3.92;1.47;;;;;;;2.94;46.64;100810.94;1770513;80;21331;-71
2022/01/16 12:17:48;;;;;;;7.70;1.80;;;;;;;2.95;46.63;100807.78;1781720;80;21618;-71
2022/01/16 12:20:28;;;;;;;6.03;1.55;;;;;;;2.97;46.66;100797.86;1771686;80;21049;-69
2022/01/16 12:23:04;;;;;;;5.10;1.60;;;;;;;2.98;46.33;100804.23;1761635;80;21134;-72
2022/01/16 12:25:50;;;;;;;4.62;1.57;;;;;;;2.99;46.27;100809.00;1781921;80;21097;-72